Flight Track Log - Related Links

Times and Time Zones

All times are in EDT time to prevent confusion due to time zone crossing. See the AAY891 flight status page for this flight to view local times or setup timezone preferences in your user account.

Time Position Orientation Groundspeed Altitude Reporting Facility
EDT Latitude Longitude Course Direction KTS MPH feet Rate Location/Type
Fri 06:46:37 PM 40.9881 -85.2542 149° Southeast 222 255 3,000  Level Chicago Center
Fri 06:47:40 PM 40.9264 -85.2250 160° South 276 318 4,900 2,352 Climbing Chicago Center
Fri 06:48:42 PM 40.8675 -85.1661 143° Southeast 271 312 7,900 2,468 Climbing Chicago Center
Fri 06:49:44 PM 40.8206 -85.0800 126° Southeast 280 322 10,000 1,597 Climbing Chicago Center
Fri 06:50:46 PM 40.7644 -84.9836 128° Southeast 316 364 11,200 1,887 Climbing Chicago Center
Fri 06:51:48 PM 40.6725 -84.8692 137° Southeast 379 436 13,900 2,545 Climbing Chicago Center
Fri 06:52:00 PM 40.4304 -85.0718 149° Southeast  Level Estimated
Fri 06:52:25 PM 40.6061 -84.8558 171° South 386 444 15,400  Level Indianapolis Center
Fri 06:53:27 PM 40.5011 -84.8225 166° South 389 448 18,000 2,177 Climbing Indianapolis Center
Fri 06:54:29 PM 40.3947 -84.7900 167° South 389 448 19,900 1,742 Climbing Indianapolis Center
Fri 06:55:31 PM 40.2856 -84.7600 168° South 393 452 21,600 1,500 Climbing Indianapolis Center
Fri 06:56:33 PM 40.1744 -84.7297 168° South 404 465 23,000 1,113 Climbing Indianapolis Center
Fri 06:57:35 PM 40.0575 -84.6981 168° South 420 483 23,900 1,500 Climbing Indianapolis Center
Fri 06:58:37 PM 39.9117 -84.6572 168° South 438 504 26,100 1,887 Climbing Indianapolis Center
Fri 06:59:39 PM 39.7925 -84.6231 168° South 439 505 27,800 1,500 Climbing Indianapolis Center
Fri 07:00:41 PM 39.6728 -84.5958 170° South 439 505 29,200 1,306 Climbing Indianapolis Center
Fri 07:01:43 PM 39.5558 -84.5756 172° South 433 498 30,500 1,161 Climbing Indianapolis Center
Fri 07:02:45 PM 39.4383 -84.5519 171° South 431 496 31,600 1,065 Climbing Indianapolis Center
Fri 07:03:47 PM 39.3219 -84.5300 172° South 427 491 32,700 677 Climbing Indianapolis Center
Fri 07:04:49 PM 39.1825 -84.5042 172° South 426 490 33,000 145 Climbing Indianapolis Center
Fri 07:05:51 PM 39.0661 -84.4800 171° South 426 490 33,000  Level Indianapolis Center
Fri 07:06:53 PM 38.9497 -84.4569 171° South 426 490 33,000  Level Indianapolis Center
Fri 07:07:54 PM 38.8328 -84.4353 172° South 425 489 33,000  Level Indianapolis Center
Fri 07:08:56 PM 38.7167 -84.4117 171° South 425 489 33,000  Level Indianapolis Center
Fri 07:09:58 PM 38.5925 -84.3881 172° South 425 489 33,000  Level Indianapolis Center
Fri 07:11:00 PM 38.4744 -84.3664 172° South 426 490 33,000  Level Indianapolis Center
Fri 07:12:02 PM 38.3375 -84.3403 171° South 426 490 33,000  Level Indianapolis Center
Fri 07:13:04 PM 38.2208 -84.3169 171° South 426 490 33,000  Level Indianapolis Center
Fri 07:14:05 PM 38.1025 -84.2964 172° South 426 490 33,000  Level Indianapolis Center
Fri 07:15:07 PM 37.9853 -84.2733 171° South 426 490 33,000  Level Indianapolis Center
Fri 07:16:09 PM 37.8678 -84.2506 171° South 426 490 33,000  Level Indianapolis Center
Fri 07:17:11 PM 37.7492 -84.2286 172° South 426 490 33,000  Level Indianapolis Center
Fri 07:18:13 PM 37.6114 -84.2028 172° South 427 491 33,000  Level Indianapolis Center
Fri 07:19:15 PM 37.4933 -84.1817 172° South 427 491 33,000  Level Indianapolis Center
Fri 07:20:17 PM 37.3753 -84.1592 171° South 427 491 33,000  Level Indianapolis Center
Fri 07:21:18 PM 37.2569 -84.1369 171° South 428 493 33,000  Level Indianapolis Center
Fri 07:22:20 PM 37.1394 -84.1161 172° South 428 493 33,000  Level Indianapolis Center
Fri 07:23:22 PM 37.0022 -84.0914 172° South 428 493 33,000  Level Indianapolis Center
Fri 07:24:24 PM 36.8844 -84.0711 172° South 428 493 33,000  Level Indianapolis Center
Fri 07:25:26 PM 36.7656 -84.0483 171° South 428 493 33,000  Level Indianapolis Center
Fri 07:26:28 PM 36.6456 -84.0272 172° South 429 494 33,000  Level Indianapolis Center
Fri 07:27:30 PM 36.5272 -84.0053 172° South 429 494 33,000  Level Indianapolis Center
Fri 07:28:32 PM 36.3969 -83.9819 172° South 434 499 33,000  Level Indianapolis Center
Fri 07:29:33 PM 36.2783 -83.9603 172° South 433 498 33,000  Level Indianapolis Center
Fri 07:30:35 PM 36.1589 -83.9378 171° South 433 498 33,000  Level Indianapolis Center
Fri 07:31:37 PM 36.0381 -83.9158 172° South 433 498 33,000  Level Indianapolis Center
Fri 07:32:39 PM 35.9169 -83.8956 172° South 433 498 33,000  Level Indianapolis Center
Fri 07:33:41 PM 35.7753 -83.9244 189° South 427 491 33,000  Level Indianapolis Center
Fri 07:34:43 PM 35.6608 -83.9531 191° South 421 484 33,000  Level Indianapolis Center
Fri 07:35:45 PM 35.5450 -83.9808 191° South 421 484 33,000  Level Indianapolis Center
Fri 07:37:02 PM 35.4033 -84.0183 192° South 429 494 33,000  Level Atlanta Center
Fri 07:38:02 PM 35.2864 -84.0439 190° South 429 494 33,000  Level Atlanta Center
Fri 07:39:02 PM 35.1717 -84.0744 192° South 429 494 33,000  Level Atlanta Center
Fri 07:40:02 PM 35.0547 -84.1022 191° South 429 494 33,000  Level Atlanta Center
Fri 07:41:02 PM 34.9400 -84.1300 191° South 429 494 33,000  Level Atlanta Center
Fri 07:42:02 PM 34.8231 -84.1553 190° South 429 494 33,000  Level Atlanta Center
Fri 07:43:02 PM 34.7083 -84.1828 191° South 429 494 33,000  Level Atlanta Center
Fri 07:44:02 PM 34.5853 -84.2103 190° South 424 488 33,000  Level Atlanta Center
Fri 07:45:02 PM 34.4703 -84.2378 191° South 424 488 33,000  Level Atlanta Center
Fri 07:46:02 PM 34.3533 -84.2653 191° South 424 488 33,000  Level Atlanta Center
Fri 07:48:02 PM 34.1236 -84.3197 191° South 429 494 33,000  Level Atlanta Center
Fri 07:49:02 PM 33.9964 -84.3369 186° South 442 509 33,000  Level Atlanta Center
Fri 07:50:02 PM 33.8817 -84.3342 179° South 442 509 33,000  Level Atlanta Center
Fri 07:51:02 PM 33.7542 -84.3336 180° South 442 509 33,000  Level Atlanta Center
Fri 07:52:02 PM 33.6269 -84.3333 180° South 443 510 33,000  Level Atlanta Center
Fri 07:53:02 PM 33.5058 -84.3353 181° South 443 510 33,000 -600 Level Atlanta Center
Fri 07:54:02 PM 33.3847 -84.3375 181° South 443 510 31,800 -1,000 Descending Atlanta Center
Fri 07:55:02 PM 33.2594 -84.3394 181° South 443 510 31,000 -400 Descending Atlanta Center
Fri 07:56:02 PM 33.1364 -84.3389 180° South 443 510 31,000  Level Atlanta Center
Fri 07:57:02 PM 33.0133 -84.3436 182° South 443 510 31,000  Level Atlanta Center
Fri 07:58:02 PM 32.8881 -84.3431 180° South 443 510 31,000  Level Atlanta Center
Fri 07:59:02 PM 32.7647 -84.3475 182° South 443 510 31,000  Level Atlanta Center
Fri 08:00:02 PM 32.6436 -84.3497 181° South 443 510 31,000  Level Atlanta Center
Fri 08:01:02 PM 32.5206 -84.3517 181° South 443 510 31,000  Level Atlanta Center
Fri 08:02:02 PM 32.3975 -84.3536 181° South 443 510 31,000  Level Atlanta Center
Fri 08:03:02 PM 32.2742 -84.3558 181° South 443 510 31,000  Level Atlanta Center
Fri 08:06:28 PM 31.8700 -84.3581 180° South 442 509 31,000  Level Jacksonville Center
Fri 08:07:28 PM 31.7508 -84.3583 180° South 437 503 31,000  Level Jacksonville Center
Fri 08:08:28 PM 31.6278 -84.3614 181° South 437 503 31,000  Level Jacksonville Center
Fri 08:09:28 PM 31.5067 -84.3644 181° South 437 503 31,000  Level Jacksonville Center
Fri 08:10:28 PM 31.3833 -84.3647 180° South 442 509 31,000  Level Jacksonville Center
Fri 08:11:28 PM 31.2622 -84.3678 181° South 442 509 31,000  Level Jacksonville Center
Fri 08:12:28 PM 31.1392 -84.3683 180° South 442 509 31,000  Level Jacksonville Center
Fri 08:13:28 PM 31.0158 -84.3664 179° South 442 509 31,000  Level Jacksonville Center
Fri 08:14:28 PM 30.8975 -84.3233 163° South 432 497 31,000  Level Jacksonville Center
Fri 08:15:28 PM 30.7789 -84.2661 157° South 444 511 31,000  Level Jacksonville Center
Fri 08:16:28 PM 30.6647 -84.2089 157° South 449 517 31,000  Level Jacksonville Center
Fri 08:17:28 PM 30.5381 -84.1467 157° South 454 522 31,000  Level Jacksonville Center
Fri 08:18:28 PM 30.4258 -84.0897 156° South 449 517 31,000  Level Jacksonville Center
Fri 08:19:28 PM 30.3114 -84.0356 158° South 444 511 31,000 -50 Level Jacksonville Center
Fri 08:20:28 PM 30.1992 -83.9814 157° South 444 511 30,900 -250 Descending Jacksonville Center
Fri 08:21:28 PM 30.0847 -83.9272 158° South 439 505 30,500 -450 Descending Jacksonville Center
Fri 08:22:28 PM 29.9747 -83.8733 157° South 434 499 30,000 -550 Descending Jacksonville Center
Fri 08:23:28 PM 29.8622 -83.8194 157° South 434 499 29,400 -600 Descending Jacksonville Center
Fri 08:24:28 PM 29.7478 -83.7633 157° South 434 499 28,800 -600 Descending Jacksonville Center
Fri 08:25:28 PM 29.6333 -83.7097 158° South 434 499 28,200 -600 Descending Jacksonville Center
Fri 08:26:28 PM 29.5189 -83.6539 157° South 434 499 27,600 -600 Descending Jacksonville Center
Fri 08:27:28 PM 29.4064 -83.5981 157° South 434 499 27,000 -600 Descending Jacksonville Center
Fri 08:28:28 PM 29.2961 -83.5475 158° South 434 499 26,400 -600 Descending Jacksonville Center
Fri 08:29:28 PM 29.1858 -83.4872 154° Southeast 434 499 25,800 -600 Descending Jacksonville Center
Fri 08:30:28 PM 29.0817 -83.4225 151° Southeast 429 494 25,200 -600 Descending Jacksonville Center
Fri 08:31:28 PM 28.9775 -83.3553 151° Southeast 423 487 24,600 -1,050 Descending Jacksonville Center
Fri 08:32:28 PM 28.8839 -83.2933 150° Southeast 432 497 23,100 -2,000 Descending Jacksonville Center
Fri 08:33:28 PM 28.7819 -83.2289 151° Southeast 432 497 20,600 -2,595 Descending Jacksonville Center
Fri 08:35:33 PM 28.5667 -83.1000 152° Southeast 389 448 15,100 -2,566 Descending Tampa TRACON
Fri 08:36:21 PM 28.5000 -83.0500 147° Southeast 382 440 13,200 -1,611 Descending Tampa TRACON
Fri 08:37:21 PM 28.4000 -83.0000 156° South 350 403 12,200 -978 Descending Tampa TRACON
Fri 08:37:53 PM 28.3683 -82.9747 145° Southeast 341 392 11,700 -1,161 Descending Miami Center
Fri 08:38:54 PM 28.2939 -82.9314 153° Southeast 305 351 10,400 -1,328 Descending Miami Center
Fri 08:39:55 PM 28.2231 -82.8894 152° Southeast 291 335 9,000 -1,525 Descending Miami Center
Fri 08:40:56 PM 28.1528 -82.8497 154° Southeast 287 330 7,300 -1,721 Descending Miami Center
Fri 08:41:57 PM 28.0861 -82.8089 152° Southeast 277 319 5,500 -1,574 Descending Miami Center
Fri 08:42:58 PM 28.0200 -82.7719 154° Southeast 269 310 4,100 -1,525 Descending Miami Center
Fri 08:43:59 PM 27.9572 -82.7572 168° South 237 273 2,400 -1,180 Descending Miami Center
Fri 08:45:00 PM 27.8850 -82.7539 178° South 224 258 1,700 -541 Descending Miami Center
Fri 08:46:01 PM 27.8417 -82.7317 156° South 212 244 1,300 -393 Descending Miami Center
Fri 08:47:02 PM 27.8533 -82.6842 74° East 178 205 900 -590 Descending Miami Center
Fri 08:48:03 PM 27.8917 -82.6850 359° North 157 181 100 -787 Descending Miami Center

Login

Don't have an account? Register now (free) for customized features, flight alerts, and more!